createdAt,value
2017-03-02T00:00:26.991Z,993.8
2017-03-02T00:01:08.546Z,993.79
2017-03-02T00:01:50.274Z,993.8
2017-03-02T00:02:31.975Z,993.77
2017-03-02T00:03:13.797Z,993.76
2017-03-02T00:03:55.297Z,993.79
2017-03-02T00:05:50.060Z,993.8
2017-03-02T00:06:31.840Z,993.9
2017-03-02T00:07:13.525Z,993.86
2017-03-02T00:07:55.069Z,993.83
2017-03-02T00:08:36.775Z,993.82
2017-03-02T00:09:18.294Z,993.88
2017-03-02T00:09:59.842Z,993.87
2017-03-02T00:10:42.627Z,993.89
2017-03-02T00:11:24.335Z,993.95
2017-03-02T00:13:55.451Z,993.92
2017-03-02T00:14:37.153Z,993.92
2017-03-02T00:15:18.872Z,994
2017-03-02T00:16:00.574Z,994.03
2017-03-02T00:16:42.128Z,994.05
2017-03-02T00:17:23.936Z,994
2017-03-02T00:18:05.708Z,993.99
2017-03-02T00:18:47.262Z,994.02
2017-03-02T00:20:42.053Z,994.04
2017-03-02T00:21:23.726Z,994.04
2017-03-02T00:22:05.619Z,994.03
2017-03-02T00:24:00.341Z,994.09
2017-03-02T00:26:16.024Z,994.08
2017-03-02T00:28:36.811Z,994.14
2017-03-02T00:29:18.689Z,994.14
2017-03-02T00:31:13.635Z,994.17
2017-03-02T00:31:55.504Z,994.31
2017-03-02T00:32:37.229Z,994.21
2017-03-02T00:33:19.088Z,994.24
2017-03-02T00:34:00.818Z,994.23
2017-03-02T00:34:42.920Z,994.24
2017-03-02T00:36:43.034Z,994.32
2017-03-02T00:38:42.993Z,994.24
2017-03-02T00:39:24.682Z,994.2
2017-03-02T00:40:06.437Z,994.23
2017-03-02T00:40:48.308Z,994.25
2017-03-02T00:41:29.807Z,994.25
2017-03-02T00:43:24.582Z,994.29
2017-03-02T00:44:06.448Z,994.32
2017-03-02T00:44:48.435Z,994.37
2017-03-02T00:46:48.451Z,994.36
2017-03-02T00:47:30.273Z,994.42
2017-03-02T00:48:12.031Z,994.42
2017-03-02T00:48:53.737Z,994.44
2017-03-02T00:49:35.234Z,994.44
2017-03-02T00:50:16.694Z,994.47
2017-03-02T00:50:58.373Z,994.5
2017-03-02T00:51:40.049Z,994.48
2017-03-02T00:52:21.466Z,994.48
2017-03-02T00:53:03.163Z,994.52
2017-03-02T00:55:34.304Z,994.61
2017-03-02T00:58:05.336Z,994.61
2017-03-02T00:58:46.853Z,994.65
2017-03-02T01:00:46.881Z,994.68
2017-03-02T01:01:28.494Z,994.69
2017-03-02T01:02:10.307Z,994.67
2017-03-02T01:04:10.316Z,994.65
2017-03-02T01:04:52.099Z,994.65
2017-03-02T01:05:33.599Z,994.64
2017-03-02T01:06:15.122Z,994.62
2017-03-02T01:06:56.574Z,994.63
2017-03-02T01:07:38.564Z,994.67
2017-03-02T01:08:20.288Z,994.63
2017-03-02T01:09:02.800Z,994.62
2017-03-02T01:09:44.544Z,994.64
2017-03-02T01:11:59.604Z,994.69
2017-03-02T01:12:41.177Z,994.72
2017-03-02T01:13:22.953Z,994.71
2017-03-02T01:14:04.826Z,994.7
2017-03-02T01:14:46.683Z,994.76
2017-03-02T01:17:01.983Z,994.8
2017-03-02T01:19:33.057Z,994.73
2017-03-02T01:20:14.532Z,994.76
2017-03-02T01:20:56.257Z,994.72
2017-03-02T01:21:37.601Z,994.82
2017-03-02T01:22:19.211Z,994.8
2017-03-02T01:23:01.563Z,994.77
2017-03-02T01:23:43.347Z,994.77
2017-03-02T01:24:24.887Z,994.81
2017-03-02T01:25:06.383Z,994.92
2017-03-02T01:25:48.260Z,994.84
2017-03-02T01:26:30.013Z,994.91
2017-03-02T01:27:12.658Z,994.78
2017-03-02T01:27:54.513Z,994.76
2017-03-02T01:28:36.347Z,994.85
2017-03-02T01:29:18.171Z,994.8
2017-03-02T01:29:59.912Z,994.9
2017-03-02T01:30:41.738Z,994.83
2017-03-02T01:31:23.262Z,994.88
2017-03-02T01:32:04.889Z,994.82
2017-03-02T01:32:46.793Z,994.8
2017-03-02T01:34:46.752Z,994.74
2017-03-02T01:35:28.454Z,994.75
2017-03-02T01:36:10.113Z,994.74
2017-03-02T01:36:51.691Z,994.69
2017-03-02T01:37:33.400Z,994.69
2017-03-02T01:38:15.353Z,994.72
2017-03-02T01:38:56.966Z,994.72
2017-03-02T01:41:28.121Z,994.69
2017-03-02T01:42:10.038Z,994.67
2017-03-02T01:42:51.787Z,994.66
2017-03-02T01:43:33.381Z,994.66
2017-03-02T01:44:14.903Z,994.69
2017-03-02T01:44:56.729Z,994.69
2017-03-02T01:45:38.312Z,994.69
2017-03-02T01:46:20.083Z,994.67
2017-03-02T01:47:01.814Z,994.68
2017-03-02T01:47:43.802Z,994.64
2017-03-02T01:50:15.029Z,994.71
2017-03-02T01:50:56.862Z,994.68
2017-03-02T01:51:38.823Z,994.67
2017-03-02T01:52:20.487Z,994.65
2017-03-02T01:53:02.233Z,994.67
2017-03-02T01:53:43.908Z,994.71
2017-03-02T01:54:25.510Z,994.72
2017-03-02T01:55:07.092Z,994.68
2017-03-02T01:55:49.027Z,994.69
2017-03-02T01:58:19.885Z,994.77
2017-03-02T01:59:01.748Z,994.73
2017-03-02T02:01:32.798Z,994.72
2017-03-02T02:02:14.414Z,994.7
2017-03-02T02:02:55.832Z,994.71
2017-03-02T02:03:37.424Z,994.75
2017-03-02T02:04:18.816Z,994.78
2017-03-02T02:05:00.757Z,994.76
2017-03-02T02:05:42.603Z,994.79
2017-03-02T02:06:24.165Z,994.81
2017-03-02T02:07:05.880Z,994.85
2017-03-02T02:09:00.536Z,994.94
2017-03-02T02:09:42.344Z,994.95
2017-03-02T02:11:36.998Z,995.04
2017-03-02T02:12:18.811Z,995.08
2017-03-02T02:12:59.857Z,995.19
2017-03-02T02:13:40.545Z,994.95
2017-03-02T02:14:21.134Z,994.98
2017-03-02T02:15:01.704Z,995.1
2017-03-02T02:15:42.396Z,995.17
2017-03-02T02:16:22.973Z,995.1
2017-03-02T02:17:03.524Z,995.13
2017-03-02T02:17:44.179Z,995.19
2017-03-02T02:18:24.767Z,995.09
2017-03-02T02:19:05.407Z,995.16
2017-03-02T02:19:46.037Z,995.1
2017-03-02T02:20:26.643Z,995.13
2017-03-02T02:21:07.256Z,995.09
2017-03-02T02:21:47.800Z,995.07
2017-03-02T02:22:28.406Z,995.1
2017-03-02T02:23:09.027Z,995.2
2017-03-02T02:23:49.719Z,995.11
2017-03-02T02:24:30.305Z,995.18
2017-03-02T02:25:10.954Z,995.32
2017-03-02T02:25:51.488Z,995.11
2017-03-02T02:26:32.022Z,995.17
2017-03-02T02:27:12.750Z,995.23
2017-03-02T02:27:53.352Z,995.2
2017-03-02T02:28:33.955Z,995.26
2017-03-02T02:29:14.645Z,995.14
2017-03-02T02:29:55.186Z,995.22
2017-03-02T02:30:35.734Z,995.34
2017-03-02T02:31:16.296Z,995.39
2017-03-02T02:31:56.909Z,995.31
2017-03-02T02:32:37.534Z,995.36
2017-03-02T02:33:18.184Z,995.4
2017-03-02T02:33:58.733Z,995.41
2017-03-02T02:34:39.342Z,995.32
2017-03-02T02:35:19.881Z,995.36
2017-03-02T02:36:00.525Z,995.4
2017-03-02T02:36:41.143Z,995.45
2017-03-02T02:37:21.857Z,995.42
2017-03-02T02:38:02.426Z,995.4
2017-03-02T02:38:43.065Z,995.48
2017-03-02T02:39:23.596Z,995.62
2017-03-02T02:40:04.200Z,995.44
2017-03-02T02:40:44.813Z,995.59
2017-03-02T02:41:25.380Z,995.6
2017-03-02T02:42:05.967Z,995.51
2017-03-02T02:42:46.579Z,995.51
2017-03-02T02:43:27.140Z,995.48
2017-03-02T02:44:07.676Z,995.55
2017-03-02T02:44:49.179Z,995.57
2017-03-02T02:45:29.760Z,995.53
2017-03-02T02:46:10.405Z,995.54
2017-03-02T02:46:51.021Z,995.49
2017-03-02T02:47:31.653Z,995.45
2017-03-02T02:48:12.193Z,995.45
2017-03-02T02:48:52.843Z,995.56
2017-03-02T02:49:33.430Z,995.49
2017-03-02T02:50:14.049Z,995.57
2017-03-02T02:50:54.661Z,995.6
2017-03-02T02:51:35.323Z,995.58
2017-03-02T02:52:15.928Z,995.62
2017-03-02T02:52:56.490Z,995.62
2017-03-02T02:53:37.164Z,995.67
2017-03-02T02:54:18.570Z,995.58
2017-03-02T02:54:59.169Z,995.59
2017-03-02T02:55:39.716Z,995.66
2017-03-02T02:56:20.323Z,995.64
2017-03-02T02:57:00.949Z,995.61
2017-03-02T02:57:41.614Z,995.64
2017-03-02T02:58:22.199Z,995.61
2017-03-02T02:59:02.791Z,995.61
2017-03-02T02:59:43.353Z,995.74
2017-03-02T03:00:23.948Z,995.66
2017-03-02T03:01:04.497Z,995.65
2017-03-02T03:01:45.117Z,995.56
2017-03-02T03:02:25.785Z,995.63
2017-03-02T03:03:06.387Z,995.69
2017-03-02T03:03:47.039Z,995.69
2017-03-02T03:04:27.721Z,995.68
2017-03-02T03:05:08.272Z,995.71
2017-03-02T03:05:48.832Z,995.69
2017-03-02T03:06:29.498Z,995.72
2017-03-02T03:07:10.068Z,995.63
2017-03-02T03:07:50.680Z,995.74
2017-03-02T03:08:31.277Z,995.79
2017-03-02T03:09:11.844Z,995.67
2017-03-02T03:09:52.455Z,995.67
2017-03-02T03:10:32.997Z,995.82
2017-03-02T03:11:13.648Z,995.73
2017-03-02T03:11:54.198Z,995.73
2017-03-02T03:12:34.848Z,995.71
2017-03-02T03:13:15.545Z,995.67
2017-03-02T03:13:56.080Z,995.77
2017-03-02T03:14:36.609Z,995.74
2017-03-02T03:15:17.265Z,995.85
2017-03-02T03:15:57.884Z,995.8
2017-03-02T03:16:38.421Z,995.89
2017-03-02T03:17:18.966Z,995.85
2017-03-02T03:17:59.640Z,995.91
2017-03-02T03:18:40.260Z,995.88
2017-03-02T03:19:20.799Z,995.91
2017-03-02T03:20:01.498Z,995.97
2017-03-02T03:20:42.114Z,995.99
2017-03-02T03:21:22.670Z,996.02
2017-03-02T03:22:03.408Z,996.07
2017-03-02T03:22:43.992Z,995.92
2017-03-02T03:23:24.527Z,995.88
2017-03-02T03:24:05.250Z,995.89
2017-03-02T03:24:45.875Z,995.85
2017-03-02T03:25:26.414Z,995.92
2017-03-02T03:26:07.058Z,995.85
2017-03-02T03:26:47.640Z,995.97
2017-03-02T03:27:28.204Z,995.92
2017-03-02T03:28:08.903Z,995.93
2017-03-02T03:28:49.530Z,995.95
2017-03-02T03:29:30.098Z,995.92
2017-03-02T03:30:11.258Z,996.07
2017-03-02T03:30:51.874Z,995.98
2017-03-02T03:31:32.412Z,996.06
2017-03-02T03:32:12.948Z,996.09
2017-03-02T03:32:53.658Z,996.02
2017-03-02T03:33:34.472Z,996.04
2017-03-02T03:34:15.099Z,996.12
2017-03-02T03:34:55.693Z,995.91
2017-03-02T03:35:36.317Z,996.23
2017-03-02T03:36:16.868Z,996.08
2017-03-02T03:36:57.504Z,996.07
2017-03-02T03:37:38.094Z,996.13
2017-03-02T03:38:18.784Z,996.17
2017-03-02T03:38:59.368Z,996.04
2017-03-02T03:39:39.982Z,995.92
2017-03-02T03:40:20.527Z,996.27
2017-03-02T03:41:01.202Z,996.26
2017-03-02T03:41:41.831Z,996.27
2017-03-02T03:42:22.399Z,996.28
2017-03-02T03:43:02.933Z,996.52
2017-03-02T03:43:43.525Z,996.6
2017-03-02T03:44:24.070Z,996.63
2017-03-02T03:45:04.692Z,996.63
2017-03-02T03:45:45.447Z,996.72
2017-03-02T03:46:26.033Z,996.54
2017-03-02T03:47:06.640Z,996.78
2017-03-02T03:47:47.348Z,996.74
2017-03-02T03:48:34.498Z,996.81
2017-03-02T03:49:15.062Z,996.77
2017-03-02T03:49:55.602Z,996.93
2017-03-02T03:50:36.145Z,996.78
2017-03-02T03:51:16.757Z,996.87
2017-03-02T03:51:57.297Z,996.77
2017-03-02T03:52:37.855Z,996.78
2017-03-02T03:53:18.397Z,996.86
2017-03-02T03:53:58.939Z,997.15
2017-03-02T03:54:39.485Z,996.93
2017-03-02T03:55:20.072Z,996.69
2017-03-02T03:56:00.617Z,996.75
2017-03-02T03:56:41.172Z,996.78
2017-03-02T03:57:21.755Z,996.81
2017-03-02T03:58:02.307Z,996.83
2017-03-02T03:58:42.856Z,996.71
2017-03-02T03:59:23.435Z,996.78
2017-03-02T04:00:04.023Z,996.97
2017-03-02T04:00:44.647Z,996.71
2017-03-02T04:01:25.257Z,996.74
2017-03-02T04:02:05.826Z,996.81
2017-03-02T04:02:46.378Z,996.87
2017-03-02T04:03:26.926Z,996.82
2017-03-02T04:04:07.469Z,996.91
2017-03-02T04:04:48.043Z,996.77
2017-03-02T04:05:28.591Z,996.82
2017-03-02T04:06:09.135Z,996.82
2017-03-02T04:06:49.728Z,996.76
2017-03-02T04:07:30.327Z,996.92
2017-03-02T04:08:11.048Z,996.85
2017-03-02T04:08:51.696Z,996.93
2017-03-02T04:09:32.292Z,996.95
2017-03-02T04:10:12.836Z,996.92
2017-03-02T04:10:53.412Z,996.89
2017-03-02T04:11:34.003Z,996.99
2017-03-02T04:12:14.618Z,996.99
2017-03-02T04:12:55.323Z,997.01
2017-03-02T04:13:35.852Z,997.09
2017-03-02T04:14:16.398Z,997.1
2017-03-02T04:14:56.963Z,997.14
2017-03-02T04:15:37.550Z,997.15
2017-03-02T04:16:18.127Z,997.17
2017-03-02T04:16:58.685Z,997.35
2017-03-02T04:17:39.382Z,997.26
2017-03-02T04:18:19.973Z,997.27
2017-03-02T04:19:00.537Z,997.35
2017-03-02T04:19:41.118Z,997.31
2017-03-02T04:20:21.699Z,997.34
2017-03-02T04:21:02.279Z,997.38
2017-03-02T04:21:42.868Z,997.39
2017-03-02T04:22:23.415Z,997.42
2017-03-02T04:23:03.950Z,997.4
2017-03-02T04:23:44.492Z,997.45
2017-03-02T04:24:25.965Z,997.5
2017-03-02T04:25:06.544Z,997.51
2017-03-02T04:25:47.990Z,997.55
2017-03-02T04:26:28.571Z,997.49
2017-03-02T04:27:09.200Z,997.56
2017-03-02T04:27:49.871Z,997.53
2017-03-02T04:28:30.547Z,997.55
2017-03-02T04:29:11.158Z,997.73
2017-03-02T04:29:51.748Z,997.64
2017-03-02T04:30:32.291Z,997.66
2017-03-02T04:31:12.826Z,997.66
2017-03-02T04:31:53.401Z,997.87
2017-03-02T04:32:33.949Z,997.72
2017-03-02T04:33:14.477Z,997.77
2017-03-02T04:33:55.015Z,997.74
2017-03-02T04:34:35.559Z,997.72
2017-03-02T04:35:16.106Z,997.8
2017-03-02T04:35:56.667Z,997.52
2017-03-02T04:36:37.215Z,997.86
2017-03-02T04:37:17.776Z,997.75
2017-03-02T04:37:58.337Z,997.72
2017-03-02T04:38:38.885Z,997.71
2017-03-02T04:39:19.414Z,997.83
2017-03-02T04:39:59.952Z,997.79
2017-03-02T04:40:40.493Z,997.88
2017-03-02T04:41:21.065Z,997.76
2017-03-02T04:42:01.625Z,997.83
2017-03-02T04:42:42.212Z,997.91
2017-03-02T04:43:22.797Z,997.92
2017-03-02T04:44:03.396Z,997.85
2017-03-02T04:44:44.019Z,997.87
2017-03-02T04:45:24.565Z,997.82
2017-03-02T04:46:05.150Z,997.87
2017-03-02T04:46:45.690Z,997.83
2017-03-02T04:47:26.262Z,997.93
2017-03-02T04:48:06.889Z,998.25
2017-03-02T04:48:47.457Z,998.01
2017-03-02T04:49:27.993Z,998.17
2017-03-02T04:50:08.595Z,998.05
2017-03-02T04:50:49.207Z,998.07
2017-03-02T04:51:29.873Z,998.22
2017-03-02T04:52:10.424Z,998.29
2017-03-02T04:52:51.026Z,998.15
2017-03-02T04:53:31.780Z,998.27
2017-03-02T04:54:12.365Z,998.21
2017-03-02T04:54:52.975Z,998.13
2017-03-02T04:55:33.569Z,998.24
2017-03-02T04:56:14.149Z,998.24
2017-03-02T04:56:54.774Z,998.29
2017-03-02T04:57:35.359Z,998.57
2017-03-02T04:58:16.147Z,998.29
2017-03-02T04:58:56.733Z,998.36
2017-03-02T04:59:37.316Z,998.2
2017-03-02T05:00:18.168Z,998.54
2017-03-02T05:00:58.792Z,998.31
2017-03-02T05:01:39.484Z,998.4
2017-03-02T05:02:20.159Z,998.3
2017-03-02T05:03:00.943Z,998.45
2017-03-02T05:03:41.529Z,998.34
2017-03-02T05:04:22.139Z,998.5
2017-03-02T05:05:02.954Z,998.28
2017-03-02T05:05:43.589Z,998.34
2017-03-02T05:08:02.941Z,998.54
2017-03-02T05:08:43.689Z,998.4
2017-03-02T05:09:24.229Z,998.52
2017-03-02T05:10:05.039Z,998.83
2017-03-02T05:10:45.634Z,998.36
2017-03-02T05:11:26.421Z,998.46
2017-03-02T05:12:06.998Z,998.56
2017-03-02T05:12:47.802Z,998.51
2017-03-02T05:13:28.363Z,998.46
2017-03-02T05:14:09.095Z,998.53
2017-03-02T05:14:49.705Z,998.58
2017-03-02T05:15:30.239Z,998.64
2017-03-02T05:16:10.995Z,998.68
2017-03-02T05:16:51.782Z,998.54
2017-03-02T05:17:32.431Z,998.55
2017-03-02T05:18:13.310Z,998.68
2017-03-02T05:18:53.841Z,998.74
2017-03-02T05:19:34.386Z,998.71
2017-03-02T05:20:15.347Z,998.71
2017-03-02T05:20:55.882Z,998.79
2017-03-02T05:21:36.424Z,998.86
2017-03-02T05:22:16.958Z,998.63
2017-03-02T05:22:57.493Z,998.7
2017-03-02T05:23:38.032Z,998.61
2017-03-02T05:24:18.566Z,998.56
2017-03-02T05:24:59.099Z,998.64
2017-03-02T05:25:39.629Z,998.7
2017-03-02T05:26:20.167Z,998.76
2017-03-02T05:27:00.720Z,998.68
2017-03-02T05:27:41.261Z,998.61
2017-03-02T05:28:21.808Z,998.74
2017-03-02T05:29:02.350Z,998.72
2017-03-02T05:29:42.895Z,998.76
2017-03-02T05:30:23.482Z,998.7
2017-03-02T05:31:04.013Z,998.63
2017-03-02T05:31:44.562Z,998.77
2017-03-02T05:32:25.096Z,998.75
2017-03-02T05:33:05.640Z,999.05
2017-03-02T05:33:46.163Z,998.84
2017-03-02T05:34:26.693Z,998.76
2017-03-02T05:35:07.227Z,998.76
2017-03-02T05:35:47.767Z,998.9
2017-03-02T05:36:28.297Z,998.84
2017-03-02T05:37:08.840Z,998.75
2017-03-02T05:37:49.366Z,998.75
2017-03-02T05:38:29.909Z,998.8
2017-03-02T05:39:10.438Z,998.67
2017-03-02T05:39:50.970Z,998.8
2017-03-02T05:40:31.509Z,998.99
2017-03-02T05:41:12.050Z,998.85
2017-03-02T05:41:52.599Z,998.78
2017-03-02T05:42:33.115Z,998.93
2017-03-02T05:43:13.664Z,998.89
2017-03-02T05:43:54.209Z,998.97
2017-03-02T05:44:34.762Z,998.69
2017-03-02T05:45:15.276Z,998.83
2017-03-02T05:45:55.817Z,998.69
2017-03-02T05:46:36.386Z,998.95
2017-03-02T05:47:16.932Z,998.59
2017-03-02T05:47:57.463Z,998.86
2017-03-02T05:48:38.004Z,998.76
2017-03-02T05:49:18.541Z,998.7
2017-03-02T05:49:59.076Z,998.77
2017-03-02T05:50:39.614Z,998.9
2017-03-02T05:51:20.152Z,999
2017-03-02T05:52:00.691Z,999.07
2017-03-02T05:52:41.233Z,998.91
2017-03-02T05:53:21.775Z,998.96
2017-03-02T05:54:02.314Z,999.13
2017-03-02T05:54:42.855Z,998.98
2017-03-02T05:55:23.395Z,999.02
2017-03-02T05:56:03.927Z,999.05
2017-03-02T05:56:44.460Z,999
2017-03-02T05:57:25.006Z,999
2017-03-02T05:58:05.540Z,999.06
2017-03-02T05:58:46.088Z,999.06
2017-03-02T05:59:26.639Z,999.07
2017-03-02T06:00:07.178Z,999.02
2017-03-02T06:00:47.717Z,999.2
2017-03-02T06:01:28.279Z,999.19
2017-03-02T06:02:08.822Z,998.99
2017-03-02T06:02:49.365Z,999.2
2017-03-02T06:03:29.887Z,999.15
2017-03-02T06:04:10.420Z,998.94
2017-03-02T06:04:50.956Z,999.23
2017-03-02T06:07:00.896Z,999.15
2017-03-02T06:07:41.439Z,999.24
2017-03-02T06:08:21.977Z,999.2
2017-03-02T06:09:02.521Z,999.54
2017-03-02T06:09:43.064Z,999.16
2017-03-02T06:10:23.602Z,999.29
2017-03-02T06:11:04.131Z,999.29
2017-03-02T06:11:44.665Z,999.77
2017-03-02T06:12:25.198Z,999.32
2017-03-02T06:13:05.747Z,999.4
2017-03-02T06:13:46.286Z,999.51
2017-03-02T06:14:26.826Z,999.35
2017-03-02T06:15:07.372Z,999.38
2017-03-02T06:15:47.918Z,999.42
2017-03-02T06:16:28.461Z,999.33
2017-03-02T06:17:08.997Z,999.46
2017-03-02T06:17:49.531Z,999.25
2017-03-02T06:18:30.070Z,999.48
2017-03-02T06:19:10.603Z,999.29
2017-03-02T06:19:51.152Z,999.33
2017-03-02T06:20:31.701Z,999.47
2017-03-02T06:21:12.267Z,999.42
2017-03-02T06:21:52.805Z,999.56
2017-03-02T06:22:33.354Z,999.27
2017-03-02T06:23:13.894Z,999.44
2017-03-02T06:23:54.472Z,999.35
2017-03-02T06:24:35.005Z,999.34
2017-03-02T06:25:15.546Z,999.5
2017-03-02T06:25:56.087Z,999.38
2017-03-02T06:26:36.639Z,999.47
2017-03-02T06:27:17.184Z,999.57
2017-03-02T06:27:57.720Z,999.59
2017-03-02T06:28:38.255Z,999.55
2017-03-02T06:29:18.785Z,999.78
2017-03-02T06:29:59.326Z,999.47
2017-03-02T06:30:39.863Z,999.57
2017-03-02T06:31:20.405Z,999.55
2017-03-02T06:32:00.939Z,999.69
2017-03-02T06:32:41.482Z,999.67
2017-03-02T06:33:22.018Z,999.36
2017-03-02T06:34:02.563Z,999.7
2017-03-02T06:34:43.096Z,999.65
2017-03-02T06:35:23.639Z,999.5
2017-03-02T06:36:04.171Z,999.58
2017-03-02T06:36:44.715Z,999.52
2017-03-02T06:37:25.251Z,999.94
2017-03-02T06:38:05.788Z,999.54
2017-03-02T06:38:46.362Z,999.59
2017-03-02T06:39:26.904Z,999.51
2017-03-02T06:40:07.449Z,999.53
2017-03-02T06:40:47.993Z,999.58
2017-03-02T06:41:28.520Z,999.69
2017-03-02T06:42:09.047Z,999.56
2017-03-02T06:42:49.586Z,999.61
2017-03-02T06:43:30.124Z,999.74
2017-03-02T06:44:10.652Z,999.59
2017-03-02T06:44:51.195Z,999.66
2017-03-02T06:45:31.749Z,999.68
2017-03-02T06:46:12.330Z,999.89
2017-03-02T06:46:52.940Z,999.56
2017-03-02T06:47:33.806Z,999.62
2017-03-02T06:48:14.473Z,999.68
2017-03-02T06:48:55.013Z,999.7
2017-03-02T06:49:35.553Z,999.77
2017-03-02T06:50:16.087Z,999.72
2017-03-02T06:50:56.615Z,999.72
2017-03-02T06:51:37.142Z,999.73
2017-03-02T06:52:17.702Z,999.91
2017-03-02T06:52:58.246Z,999.75
2017-03-02T06:53:38.795Z,999.95
2017-03-02T06:54:19.349Z,999.72
2017-03-02T06:54:59.885Z,999.76
2017-03-02T06:55:40.477Z,999.76
2017-03-02T06:56:21.037Z,999.79
2017-03-02T06:57:01.578Z,999.84
2017-03-02T06:57:42.132Z,999.82
2017-03-02T06:58:22.673Z,1000.03
2017-03-02T06:59:03.214Z,999.89
2017-03-02T06:59:43.781Z,999.98
2017-03-02T07:00:24.327Z,1000.02
2017-03-02T07:01:04.871Z,999.92
2017-03-02T07:01:45.404Z,1000.04
2017-03-02T07:02:25.949Z,999.98
2017-03-02T07:03:06.488Z,1000.04
2017-03-02T07:03:47.027Z,1000.07
2017-03-02T07:04:27.554Z,1000.32
2017-03-02T07:05:08.082Z,1000.17
2017-03-02T07:05:48.614Z,1000.27
2017-03-02T07:06:29.160Z,999.99
2017-03-02T07:07:09.711Z,1000.05
2017-03-02T07:07:50.246Z,1000.16
2017-03-02T07:08:30.787Z,1000.17
2017-03-02T07:09:11.341Z,1000.16
2017-03-02T07:09:51.885Z,999.89
2017-03-02T07:10:32.425Z,1000.32
2017-03-02T07:11:12.958Z,1000.26
2017-03-02T07:11:53.492Z,1000.27
2017-03-02T07:12:34.037Z,1000.16
2017-03-02T07:13:14.571Z,1000.25
2017-03-02T07:13:55.123Z,1000.19
2017-03-02T07:14:35.666Z,1000.33
2017-03-02T07:15:16.214Z,1000.13
2017-03-02T07:15:56.738Z,1000.09
2017-03-02T07:16:37.265Z,1000.3
2017-03-02T07:17:17.804Z,1000.31
2017-03-02T07:17:58.354Z,1000.29
2017-03-02T07:18:38.893Z,1000.5
2017-03-02T07:19:19.445Z,1000.42
2017-03-02T07:19:59.972Z,1000.33
2017-03-02T07:20:40.516Z,1000.39
2017-03-02T07:21:21.064Z,1000.24
2017-03-02T07:22:01.604Z,1000.38
2017-03-02T07:22:42.145Z,1000.33
2017-03-02T07:23:22.685Z,1000.36
2017-03-02T07:24:03.223Z,1000.34
2017-03-02T07:24:43.761Z,1000.4
2017-03-02T07:25:24.304Z,1000.47
2017-03-02T07:26:04.886Z,1000.61
2017-03-02T07:26:45.426Z,1000.63
2017-03-02T07:27:25.962Z,1000.49
2017-03-02T07:28:06.503Z,1000.52
2017-03-02T07:28:47.051Z,1000.51
2017-03-02T07:29:27.587Z,1000.51
2017-03-02T07:30:08.121Z,1000.59
2017-03-02T07:30:48.658Z,1000.66
2017-03-02T07:31:29.204Z,1000.77
2017-03-02T07:32:09.745Z,1000.64
2017-03-02T07:32:50.279Z,1000.31
2017-03-02T07:33:30.809Z,1000.48
2017-03-02T07:34:11.339Z,1000.49
2017-03-02T07:34:51.887Z,1000.87
2017-03-02T07:35:32.428Z,1000.78
2017-03-02T07:36:12.992Z,1000.62
2017-03-02T07:36:53.517Z,1000.63
2017-03-02T07:37:34.060Z,1000.8
2017-03-02T07:38:14.609Z,1000.9
2017-03-02T07:38:55.141Z,1000.77
2017-03-02T07:39:35.679Z,1001.01
2017-03-02T07:40:16.218Z,1000.8
2017-03-02T07:40:56.755Z,1000.81
2017-03-02T07:41:37.294Z,1001.17
2017-03-02T07:42:17.837Z,1000.88
2017-03-02T07:42:58.396Z,1000.77
2017-03-02T07:43:38.933Z,1001.09
2017-03-02T07:44:19.485Z,1001
2017-03-02T07:45:00.025Z,1000.92
2017-03-02T07:45:40.566Z,1000.98
2017-03-02T07:46:21.106Z,1000.93
2017-03-02T07:47:01.644Z,1001.07
2017-03-02T07:47:42.185Z,1000.97
2017-03-02T07:48:22.721Z,1000.93
2017-03-02T07:49:03.260Z,1000.94
2017-03-02T07:49:43.800Z,1000.97
2017-03-02T07:50:24.357Z,1000.99
2017-03-02T07:51:04.902Z,1001.18
2017-03-02T07:51:45.442Z,1001.05
2017-03-02T07:52:25.980Z,1001.18
2017-03-02T07:53:06.511Z,1001.08
2017-03-02T07:53:47.050Z,1000.92
2017-03-02T07:54:27.586Z,1001.06
2017-03-02T07:55:08.125Z,1000.98
2017-03-02T07:55:48.655Z,1001.18
2017-03-02T07:56:29.195Z,1001.04
2017-03-02T07:57:09.737Z,1000.96
2017-03-02T07:57:50.278Z,1001.17
2017-03-02T07:58:30.806Z,1001.09
2017-03-02T07:59:11.338Z,1001.12
2017-03-02T07:59:51.892Z,1001.18
2017-03-02T08:00:32.411Z,1001.2
2017-03-02T08:01:12.953Z,1001.06
2017-03-02T08:01:53.487Z,1001.14
2017-03-02T08:02:34.033Z,1001.33
2017-03-02T08:03:14.573Z,1001.46
2017-03-02T08:03:55.111Z,1001.28
2017-03-02T08:04:35.712Z,1001.36
2017-03-02T08:05:16.269Z,1001.11
2017-03-02T08:05:56.817Z,1001.31
2017-03-02T08:06:37.360Z,1001.08
2017-03-02T08:07:17.916Z,1001.13
2017-03-02T08:07:58.458Z,1001.3
2017-03-02T08:08:39.008Z,1001.11
2017-03-02T08:09:19.547Z,1001.17
2017-03-02T08:10:00.091Z,1001.28
2017-03-02T08:10:40.616Z,1001.32
2017-03-02T08:11:21.151Z,1001.25
2017-03-02T08:12:01.693Z,1001.23
2017-03-02T08:12:42.224Z,1001.28
2017-03-02T08:13:22.767Z,1001.46
2017-03-02T08:14:03.303Z,1001.33
2017-03-02T08:14:43.844Z,1001.38
2017-03-02T08:15:24.373Z,1001.42
2017-03-02T08:16:04.903Z,1001.47
2017-03-02T08:16:45.443Z,1001.49
2017-03-02T08:17:25.975Z,1001.56
2017-03-02T08:18:06.516Z,1001.55
2017-03-02T08:18:47.053Z,1001.43
2017-03-02T08:19:27.599Z,1001.55
2017-03-02T08:20:08.131Z,1001.49
2017-03-02T08:20:48.673Z,1001.52
2017-03-02T08:21:29.214Z,1001.51
2017-03-02T08:22:09.756Z,1001.54
2017-03-02T08:22:50.284Z,1001.48
2017-03-02T08:23:30.824Z,1001.45
2017-03-02T08:24:11.362Z,1001.5
2017-03-02T08:24:51.907Z,1001.65
2017-03-02T08:25:32.447Z,1001.58
2017-03-02T08:26:12.979Z,1001.63
2017-03-02T08:26:53.519Z,1001.76
2017-03-02T08:27:34.039Z,1001.55
2017-03-02T08:28:14.588Z,1001.54
2017-03-02T08:28:55.138Z,1001.64
2017-03-02T08:29:35.688Z,1001.54
2017-03-02T08:30:16.214Z,1001.69
2017-03-02T08:30:56.758Z,1001.75
2017-03-02T08:31:37.287Z,1001.52
2017-03-02T08:32:17.830Z,1001.72
2017-03-02T08:32:58.363Z,1001.72
2017-03-02T08:33:38.890Z,1001.72
2017-03-02T08:34:19.426Z,1001.53
2017-03-02T08:34:59.969Z,1001.72
2017-03-02T08:35:40.488Z,1001.89
2017-03-02T08:36:21.036Z,1001.71
2017-03-02T08:37:01.553Z,1001.89
2017-03-02T08:37:42.095Z,1001.82
2017-03-02T08:38:22.642Z,1001.72
2017-03-02T08:39:03.181Z,1001.76
2017-03-02T08:39:43.724Z,1001.86
2017-03-02T08:40:24.266Z,1001.71
2017-03-02T08:41:04.807Z,1001.71
2017-03-02T08:41:45.341Z,1001.93
2017-03-02T08:42:25.896Z,1001.98
2017-03-02T08:43:06.429Z,1001.88
2017-03-02T08:43:46.974Z,1001.78
2017-03-02T08:44:27.502Z,1001.75
2017-03-02T08:45:08.049Z,1001.79
2017-03-02T08:45:48.600Z,1001.5
2017-03-02T08:46:29.151Z,1001.64
2017-03-02T08:47:09.701Z,1001.65
2017-03-02T08:47:50.259Z,1001.76
2017-03-02T08:48:30.805Z,1001.66
2017-03-02T08:49:11.347Z,1001.69
2017-03-02T08:49:51.887Z,1001.72
2017-03-02T08:50:32.431Z,1001.78
2017-03-02T08:51:12.980Z,1001.81
2017-03-02T08:51:53.505Z,1001.85
2017-03-02T08:52:34.041Z,1001.73
2017-03-02T08:53:14.582Z,1001.96
2017-03-02T08:53:55.131Z,1002.13
2017-03-02T08:54:35.665Z,1001.96
2017-03-02T08:55:16.211Z,1001.98
2017-03-02T08:55:56.761Z,1002.26
2017-03-02T08:56:37.301Z,1002.09
2017-03-02T08:57:17.841Z,1001.97
2017-03-02T08:57:58.389Z,1002.01
2017-03-02T08:58:38.937Z,1001.92
2017-03-02T08:59:19.485Z,1001.98
2017-03-02T09:00:00.031Z,1001.97
2017-03-02T09:00:40.579Z,1002.04
2017-03-02T09:01:21.131Z,1002.21
2017-03-02T09:02:01.662Z,1002.12
2017-03-02T09:02:42.198Z,1002.12
2017-03-02T09:03:22.743Z,1002.22
2017-03-02T09:04:03.279Z,1001.94
2017-03-02T09:04:43.824Z,1002.12
2017-03-02T09:05:24.372Z,1002.19
2017-03-02T09:06:04.928Z,1002.2
2017-03-02T09:06:45.475Z,1002.14
2017-03-02T09:07:26.040Z,1001.92